地図

経路データ

SID SEASON NUMBER BASIN SUBBASIN NAME ISO_TIME NATURE LAT LON WMO_WIND WMO_PRES WMO_AGENCY TRACK_TYPE DIST2LAND LANDFALL IFLAG USA_AGENCY USA_ATCF_ID USA_LAT USA_LON USA_RECORD USA_STATUS USA_WIND USA_PRES USA_SSHS USA_R34_NE USA_R34_SE USA_R34_SW USA_R34_NW USA_R50_NE USA_R50_SE USA_R50_SW USA_R50_NW USA_R64_NE USA_R64_SE USA_R64_SW USA_R64_NW USA_POCI USA_ROCI USA_RMW USA_EYE TOKYO_LAT TOKYO_LON TOKYO_GRADE TOKYO_WIND TOKYO_PRES TOKYO_R50_DIR TOKYO_R50_LONG TOKYO_R50_SHORT TOKYO_R30_DIR TOKYO_R30_LONG TOKYO_R30_SHORT TOKYO_LAND CMA_LAT CMA_LON CMA_CAT CMA_WIND CMA_PRES HKO_LAT HKO_LON HKO_CAT HKO_WIND HKO_PRES NEWDELHI_LAT NEWDELHI_LON NEWDELHI_GRADE NEWDELHI_WIND NEWDELHI_PRES NEWDELHI_CI NEWDELHI_DP NEWDELHI_POCI REUNION_LAT REUNION_LON REUNION_TYPE REUNION_WIND REUNION_PRES REUNION_TNUM REUNION_CI REUNION_RMW REUNION_R34_NE REUNION_R34_SE REUNION_R34_SW REUNION_R34_NW REUNION_R50_NE REUNION_R50_SE REUNION_R50_SW REUNION_R50_NW REUNION_R64_NE REUNION_R64_SE REUNION_R64_SW REUNION_R64_NW BOM_LAT BOM_LON BOM_TYPE BOM_WIND BOM_PRES BOM_TNUM BOM_CI BOM_RMW BOM_R34_NE BOM_R34_SE BOM_R34_SW BOM_R34_NW BOM_R50_NE BOM_R50_SE BOM_R50_SW BOM_R50_NW BOM_R64_NE BOM_R64_SE BOM_R64_SW BOM_R64_NW BOM_ROCI BOM_POCI BOM_EYE BOM_POS_METHOD BOM_PRES_METHOD NADI_LAT NADI_LON NADI_CAT NADI_WIND NADI_PRES WELLINGTON_LAT WELLINGTON_LON WELLINGTON_WIND WELLINGTON_PRES DS824_LAT DS824_LON DS824_STAGE DS824_WIND DS824_PRES TD9636_LAT TD9636_LON TD9636_STAGE TD9636_WIND TD9636_PRES TD9635_LAT TD9635_LON TD9635_WIND TD9635_PRES TD9635_ROCI NEUMANN_LAT NEUMANN_LON NEUMANN_CLASS NEUMANN_WIND NEUMANN_PRES MLC_LAT MLC_LON MLC_CLASS MLC_WIND MLC_PRES USA_GUST BOM_GUST BOM_GUST_PER REUNION_GUST REUNION_GUST_PER USA_SEAHGT USA_SEARAD_NE USA_SEARAD_SE USA_SEARAD_SW USA_SEARAD_NW STORM_SPEED STORM_DIR
1903010S11057 1903 1 SI MM NOT_NAMED 1903-01-10 00:00:00 TS -10.7000 56.9000 main 804 773 _________O____ -1 -10.7000 56.9000 TC 8 220
1903010S11057 1903 1 SI MM NOT_NAMED 1903-01-10 03:00:00 TS -10.9976 56.6451 main 762 732 _________P____ -1 -10.9976 56.6451 TC 8 219
1903010S11057 1903 1 SI MM NOT_NAMED 1903-01-10 06:00:00 TS -11.3000 56.4000 main 732 702 _________O____ -1 -11.3000 56.4000 TC 8 218
1903010S11057 1903 1 SI MM NOT_NAMED 1903-01-10 09:00:00 TS -11.6074 56.1649 main 702 662 _________P____ -1 -11.6074 56.1649 TC 8 219
1903010S11057 1903 1 SI MM NOT_NAMED 1903-01-10 12:00:00 TS -11.9000 55.9000 main 662 624 _________O____ -1 -11.9000 55.9000 TC 8 227
1903010S11057 1903 1 SI MM NOT_NAMED 1903-01-10 15:00:00 TS -12.1575 55.5650 main 622 574 _________P____ -1 -12.1575 55.5650 TC 9 234
1903010S11057 1903 1 SI MM NOT_NAMED 1903-01-10 18:00:00 TS -12.4000 55.2000 main 574 526 _________O____ -1 -12.4000 55.2000 TC 9 236
1903010S11057 1903 1 SI MM NOT_NAMED 1903-01-10 21:00:00 TS -12.6425 54.8275 main 526 486 _________P____ -1 -12.6425 54.8275 TC 8 234
1903010S11057 1903 1 SI MM NOT_NAMED 1903-01-11 00:00:00 TS -12.9000 54.5000 main 486 459 _________O____ -1 -12.9000 54.5000 TC 8 225
1903010S11057 1903 1 SI MM NOT_NAMED 1903-01-11 03:00:00 TS -13.1924 54.2699 main 459 432 _________P____ -1 -13.1924 54.2699 TC 7 213
1903010S11057 1903 1 SI MM NOT_NAMED 1903-01-11 06:00:00 TS -13.5000 54.1000 main 432 408 _________O____ -1 -13.5000 54.1000 TC 7 207
1903010S11057 1903 1 SI MM NOT_NAMED 1903-01-11 09:00:00 TS -13.7924 53.9573 main 408 375 _________P____ -1 -13.7924 53.9573 TC 7 206
1903010S11057 1903 1 SI MM NOT_NAMED 1903-01-11 12:00:00 TS -14.1000 53.8000 main 375 345 _________O____ -1 -14.1000 53.8000 TC 8 211
1903010S11057 1903 1 SI MM NOT_NAMED 1903-01-11 15:00:00 TS -14.4350 53.5650 main 345 304 _________P____ -1 -14.4350 53.5650 TC 9 215
1903010S11057 1903 1 SI MM NOT_NAMED 1903-01-11 18:00:00 TS -14.8000 53.3000 main 304 279 _________O____ -1 -14.8000 53.3000 TC 9 214
1903010S11057 1903 1 SI MM NOT_NAMED 1903-01-11 21:00:00 TS -15.1700 53.0424 main 268 246 _________P____ -1 -15.1700 53.0424 TC 9 211
1903010S11057 1903 1 SI MM NOT_NAMED 1903-01-12 00:00:00 TS -15.6000 52.8000 main 247 231 _________O____ -1 -15.6000 52.8000 TC 11 206
1903010S11057 1903 1 SI MM NOT_NAMED 1903-01-12 03:00:00 TS -16.1275 52.5627 main 238 232 _________P____ -1 -16.1275 52.5627 TC 12 199
1903010S11057 1903 1 SI MM NOT_NAMED 1903-01-12 06:00:00 TS -16.7000 52.4000 main 245 245 _________O____ -1 -16.7000 52.4000 TC 12 190
1903010S11057 1903 1 SI MM NOT_NAMED 1903-01-12 09:00:00 TS -17.2725 52.3623 main 275 275 _________P____ -1 -17.2725 52.3623 TC 11 180
1903010S11057 1903 1 SI MM NOT_NAMED 1903-01-12 12:00:00 TS -17.8000 52.4000 main 297 297 _________O____ -1 -17.8000 52.4000 TC 10 176
1903010S11057 1903 1 SI MM NOT_NAMED 1903-01-12 15:00:00 TS -18.2300 52.4350 main 311 311 _________P____ -1 -18.2300 52.4350 TC 8 173
1903010S11057 1903 1 SI MM NOT_NAMED 1903-01-12 18:00:00 TS -18.6000 52.5000 main 330 330 _________O____ -1 -18.6000 52.5000 TC 8 169
1903010S11057 1903 1 SI MM NOT_NAMED 1903-01-12 21:00:00 TS -18.9725 52.5925 main 348 329 _________P____ -1 -18.9725 52.5925 TC 7 165
1903010S11057 1903 1 SI MM NOT_NAMED 1903-01-13 00:00:00 TS -19.3000 52.7000 main 329 301 _________O____ -1 -19.3000 52.7000 TC 6 162
1903010S11057 1903 1 SI MM NOT_NAMED 1903-01-13 03:00:00 TS -19.5650 52.8001 main 301 280 _________P____ -1 -19.5650 52.8001 TC 5 159
1903010S11057 1903 1 SI MM NOT_NAMED 1903-01-13 06:00:00 TS -19.8000 52.9000 main 280 259 _________O____ -1 -19.8000 52.9000 TC 5 159
1903010S11057 1903 1 SI MM NOT_NAMED 1903-01-13 09:00:00 TS -20.0575 53.0000 main 254 236 _________P____ -1 -20.0575 53.0000 TC 5 159
1903010S11057 1903 1 SI MM NOT_NAMED 1903-01-13 12:00:00 TS -20.3000 53.1000 main 236 218 _________O____ -1 -20.3000 53.1000 TC 5 158
1903010S11057 1903 1 SI MM NOT_NAMED 1903-01-13 15:00:00 TS -20.5075 53.1926 main 218 202 _________P____ -1 -20.5075 53.1926 TC 4 155
1903010S11057 1903 1 SI MM NOT_NAMED 1903-01-13 18:00:00 TS -20.7000 53.3000 main 202 188 _________O____ -1 -20.7000 53.3000 TC 5 149
1903010S11057 1903 1 SI MM NOT_NAMED 1903-01-13 21:00:00 TS -20.8975 53.4399 main 188 165 _________P____ -1 -20.8975 53.4399 TC 5 145
1903010S11057 1903 1 SI MM NOT_NAMED 1903-01-14 00:00:00 TS -21.1000 53.6000 main 165 _________O____ -1 -21.1000 53.6000 TC 5 144

IBTrACS Databaseについて

本データベースは、米国NOAAが公開する1842年以降の世界の熱帯低気圧のベストトラックデータアーカイブInternational Best Track Archive for Climate Stewardship (IBTrACS)を、ウェブで閲覧しやすい形式に変換したものです。

最終更新日:2021-12-06